메인 페이지
METAR-TAF:

METAR-TAF

공항 :

극북의 땅, 그린란드

위도: 76-32N, 경도: 068-42W, 고도: 77m

현재 날씨관측

예보는 1 시간 17분 전, 04:56시(UTC)에 발표되었습니다.
무풍
온도 2°C
습도 100%
기압 1006 hPa
시정 10km 이상
맑음

METAR: BGTL 170456Z AUTO 00000KT 9999 CLR 02/02 A2970 RMK AO2 SLP042 T00230022 TSNO $

시각: 03:13 (06:13 UTC)

예보

예보는 5 시간 13분 전, 01:00시(UTC)에 발표되었습니다.
예보 대상 시간: 17일 01시부터 18일 07시까지 (UTC)
북서6kt
시정 10km 이상
고도 3500ft 상공 구름 조금
고도 5000ft 상공 구름 보통
전환 중
17일 21시부터 17일 22시까지 (UTC)
북서6kt
시정: 1709m
고도 25000ft 상공 구름 많음

TAF: BGTL 170100Z 1701/1807 31006KT 9999 FEW035 SCT050 QNH2967INS BECMG 1721/1722 31006KT 9999 BKN250 QNH2984INS TX02/1717Z TN00/1705Z LAST NO AMDS AFT 1701 NEXT 1709

4,000개 이상의 공항 관측 자료 및 예보 (METAR 및 TAF 보고).

지도상에서 검색 가능한 기상관측소가 노란 점과 빨간 점으로 표시되어 있습니다.

기상관측소 명을 보려면 표시 위로 마우스를 이동하세요.

날씨 관측과 예보를 보려면 클릭하세요.

지도 변경 : 확대하려면 엑스 표시가 있는 녹색 버튼, 축소하려면 빼기 표시가 있는 녹색 버튼, 다음 페이지의 지도를 보려면 녹색 화살표를 클릭하세요.


METAR-TAF: